sensor_id;sensor_type;location;lat;lon;timestamp;pressure;altitude;pressure_sealevel;temperature;humidity
72395;BME280;60384;48.152;11.614;2022-12-07T09:50:28;95604.56;;;4.09;72.89
72395;BME280;60384;48.152;11.614;2022-12-07T09:53:33;95598.41;;;4.19;73.44
72395;BME280;60384;48.152;11.614;2022-12-07T09:56:36;95604.84;;;4.36;72.86
72395;BME280;60384;48.152;11.614;2022-12-07T09:59:38;95596.03;;;4.46;73.38
72395;BME280;60384;48.152;11.614;2022-12-07T10:02:42;95594.06;;;4.56;73.35
72395;BME280;60384;48.152;11.614;2022-12-07T10:05:49;95586.59;;;4.64;73.29
72395;BME280;60384;48.152;11.614;2022-12-07T10:08:52;95585.00;;;4.63;73.51
72395;BME280;60384;48.152;11.614;2022-12-07T10:12:05;95587.66;;;4.63;73.65
72395;BME280;60384;48.152;11.614;2022-12-07T10:15:07;95593.69;;;4.68;74.48
72395;BME280;60384;48.152;11.614;2022-12-07T10:18:31;95589.03;;;4.84;73.22
72395;BME280;60384;48.152;11.614;2022-12-07T10:21:35;95586.09;;;4.85;73.76
72395;BME280;60384;48.152;11.614;2022-12-07T10:24:37;95581.19;;;4.97;73.27
72395;BME280;60384;48.152;11.614;2022-12-07T10:27:41;95579.00;;;5.05;73.32
72395;BME280;60384;48.152;11.614;2022-12-07T10:30:49;95584.19;;;5.33;72.47
72395;BME280;60384;48.152;11.614;2022-12-07T10:33:53;95574.44;;;5.48;72.80
72395;BME280;60384;48.152;11.614;2022-12-07T10:37:15;95576.75;;;5.73;71.92
72395;BME280;60384;48.152;11.614;2022-12-07T10:40:27;95575.41;;;5.94;71.72
72395;BME280;60384;48.152;11.614;2022-12-07T10:43:30;95571.13;;;6.12;71.29
72395;BME280;60384;48.152;11.614;2022-12-07T10:46:50;95566.63;;;6.58;71.18
72395;BME280;60384;48.152;11.614;2022-12-07T10:50:08;95556.22;;;7.17;69.80
72395;BME280;60384;48.152;11.614;2022-12-07T10:53:39;95549.72;;;7.81;69.43
72395;BME280;60384;48.152;11.614;2022-12-07T10:57:11;95552.31;;;8.31;69.67
72395;BME280;60384;48.152;11.614;2022-12-07T11:00:21;95546.38;;;9.04;68.70
72395;BME280;60384;48.152;11.614;2022-12-07T11:03:30;95540.09;;;9.17;69.02
72395;BME280;60384;48.152;11.614;2022-12-07T11:06:39;95538.25;;;9.35;69.17
72395;BME280;60384;48.152;11.614;2022-12-07T11:10:00;95524.66;;;9.97;68.12
72395;BME280;60384;48.152;11.614;2022-12-07T11:13:22;95513.31;;;10.25;67.90
72395;BME280;60384;48.152;11.614;2022-12-07T11:16:32;95520.34;;;10.39;68.40
72395;BME280;60384;48.152;11.614;2022-12-07T11:19:52;95520.09;;;10.23;68.56
72395;BME280;60384;48.152;11.614;2022-12-07T11:23:02;95518.03;;;10.20;69.12
72395;BME280;60384;48.152;11.614;2022-12-07T11:26:15;95512.41;;;9.70;70.05
72395;BME280;60384;48.152;11.614;2022-12-07T11:29:37;95516.81;;;9.48;70.26
72395;BME280;60384;48.152;11.614;2022-12-07T11:32:53;95515.06;;;9.87;69.07
72395;BME280;60384;48.152;11.614;2022-12-07T11:36:06;95503.91;;;10.11;68.72
72395;BME280;60384;48.152;11.614;2022-12-07T11:39:23;95508.31;;;10.24;68.25
72395;BME280;60384;48.152;11.614;2022-12-07T11:42:31;95504.41;;;9.87;69.10
72395;BME280;60384;48.152;11.614;2022-12-07T11:45:39;95506.13;;;9.57;69.26
72395;BME280;60384;48.152;11.614;2022-12-07T11:48:46;95496.25;;;9.40;69.32
72395;BME280;60384;48.152;11.614;2022-12-07T11:51:52;95500.88;;;9.00;70.13
72395;BME280;60384;48.152;11.614;2022-12-07T11:54:57;95492.06;;;8.74;70.36
72395;BME280;60384;48.152;11.614;2022-12-07T11:58:06;95484.59;;;8.93;68.73
72395;BME280;60384;48.152;11.614;2022-12-07T12:01:24;95484.50;;;9.41;68.10
72395;BME280;60384;48.152;11.614;2022-12-07T12:04:41;95479.34;;;9.45;68.21
72395;BME280;60384;48.152;11.614;2022-12-07T12:07:52;95476.81;;;9.40;68.56
72395;BME280;60384;48.152;11.614;2022-12-07T12:11:00;95470.38;;;9.41;68.79
72395;BME280;60384;48.152;11.614;2022-12-07T12:14:19;95464.91;;;9.54;68.33
72395;BME280;60384;48.152;11.614;2022-12-07T12:17:48;95465.38;;;9.39;68.64
72395;BME280;60384;48.152;11.614;2022-12-07T12:20:55;95467.84;;;9.10;68.87
72395;BME280;60384;48.152;11.614;2022-12-07T12:24:01;95462.97;;;9.03;69.37
72395;BME280;60384;48.152;11.614;2022-12-07T12:27:06;95460.13;;;9.00;69.09
72395;BME280;60384;48.152;11.614;2022-12-07T12:30:29;95458.72;;;8.85;69.29
72395;BME280;60384;48.152;11.614;2022-12-07T12:33:33;95458.66;;;8.68;69.84
72395;BME280;60384;48.152;11.614;2022-12-07T12:36:46;95461.44;;;8.54;69.69
72395;BME280;60384;48.152;11.614;2022-12-07T12:40:12;95463.44;;;8.40;70.22
72395;BME280;60384;48.152;11.614;2022-12-07T12:43:51;95460.38;;;8.24;69.59
72395;BME280;60384;48.152;11.614;2022-12-07T12:46:56;95467.47;;;8.07;69.55
72395;BME280;60384;48.152;11.614;2022-12-07T12:50:19;95457.53;;;7.90;70.19
72395;BME280;60384;48.152;11.614;2022-12-07T12:53:23;95460.72;;;7.78;70.26
72395;BME280;60384;48.152;11.614;2022-12-07T12:56:36;95462.06;;;7.67;68.95
72395;BME280;60384;48.152;11.614;2022-12-07T12:59:56;95458.38;;;7.55;69.30
72395;BME280;60384;48.152;11.614;2022-12-07T13:03:01;95460.28;;;7.40;70.00
72395;BME280;60384;48.152;11.614;2022-12-07T13:06:18;95455.97;;;7.44;68.86
72395;BME280;60384;48.152;11.614;2022-12-07T13:09:23;95452.53;;;7.44;69.38
72395;BME280;60384;48.152;11.614;2022-12-07T13:12:26;95453.91;;;7.41;69.48
72395;BME280;60384;48.152;11.614;2022-12-07T13:15:33;95457.28;;;7.33;69.42
72395;BME280;60384;48.152;11.614;2022-12-07T13:18:37;95455.81;;;7.27;70.21
72395;BME280;60384;48.152;11.614;2022-12-07T13:21:44;95440.59;;;7.19;69.36
72395;BME280;60384;48.152;11.614;2022-12-07T13:24:46;95444.94;;;7.15;69.78
72395;BME280;60384;48.152;11.614;2022-12-07T13:27:54;95442.13;;;7.12;69.53
72395;BME280;60384;48.152;11.614;2022-12-07T13:31:13;95442.53;;;7.05;69.38
72395;BME280;60384;48.152;11.614;2022-12-07T13:34:31;95442.13;;;6.98;69.92
72395;BME280;60384;48.152;11.614;2022-12-07T13:37:33;95443.63;;;6.90;69.97
72395;BME280;60384;48.152;11.614;2022-12-07T13:40:35;95454.34;;;6.85;69.67
72395;BME280;60384;48.152;11.614;2022-12-07T13:43:46;95446.78;;;6.79;69.57
72395;BME280;60384;48.152;11.614;2022-12-07T13:46:55;95445.91;;;6.70;69.87
72395;BME280;60384;48.152;11.614;2022-12-07T13:50:00;95438.06;;;6.64;70.05
72395;BME280;60384;48.152;11.614;2022-12-07T13:53:12;95439.75;;;6.60;70.29
72395;BME280;60384;48.152;11.614;2022-12-07T13:56:16;95438.75;;;6.56;69.83
72395;BME280;60384;48.152;11.614;2022-12-07T13:59:19;95446.81;;;6.51;69.91
72395;BME280;60384;48.152;11.614;2022-12-07T14:02:26;95441.63;;;6.46;70.28
72395;BME280;60384;48.152;11.614;2022-12-07T14:05:31;95435.91;;;6.39;69.99
72395;BME280;60384;48.152;11.614;2022-12-07T14:08:33;95435.72;;;6.36;70.45
72395;BME280;60384;48.152;11.614;2022-12-07T14:11:35;95429.63;;;6.35;70.48
72395;BME280;60384;48.152;11.614;2022-12-07T14:14:46;95431.00;;;6.33;70.34
72395;BME280;60384;48.152;11.614;2022-12-07T14:17:50;95432.09;;;6.32;70.36
72395;BME280;60384;48.152;11.614;2022-12-07T14:21:04;95433.97;;;6.31;70.59
72395;BME280;60384;48.152;11.614;2022-12-07T14:24:14;95438.25;;;6.27;70.16
72395;BME280;60384;48.152;11.614;2022-12-07T14:27:18;95438.88;;;6.24;70.29
72395;BME280;60384;48.152;11.614;2022-12-07T14:30:20;95430.72;;;6.20;70.62
72395;BME280;60384;48.152;11.614;2022-12-07T14:33:24;95430.78;;;6.15;70.45
72395;BME280;60384;48.152;11.614;2022-12-07T14:36:27;95431.38;;;6.12;70.70
72395;BME280;60384;48.152;11.614;2022-12-07T14:39:29;95432.47;;;6.11;71.11
72395;BME280;60384;48.152;11.614;2022-12-07T14:42:33;95429.34;;;6.09;71.01
72395;BME280;60384;48.152;11.614;2022-12-07T14:45:36;95430.69;;;6.07;70.97
72395;BME280;60384;48.152;11.614;2022-12-07T14:48:38;95432.84;;;6.05;70.31
72395;BME280;60384;48.152;11.614;2022-12-07T14:51:42;95431.59;;;6.02;70.95
72395;BME280;60384;48.152;11.614;2022-12-07T14:54:45;95431.06;;;6.00;71.04
72395;BME280;60384;48.152;11.614;2022-12-07T14:57:48;95426.06;;;5.99;71.04
72395;BME280;60384;48.152;11.614;2022-12-07T15:00:50;95424.28;;;5.94;71.25
72395;BME280;60384;48.152;11.614;2022-12-07T15:03:52;95421.75;;;5.89;71.04
72395;BME280;60384;48.152;11.614;2022-12-07T15:06:56;95419.16;;;5.84;71.20
72395;BME280;60384;48.152;11.614;2022-12-07T15:09:59;95425.03;;;5.81;71.18
72395;BME280;60384;48.152;11.614;2022-12-07T15:13:02;95425.13;;;5.76;71.29
72395;BME280;60384;48.152;11.614;2022-12-07T15:16:19;95424.13;;;5.72;71.17
72395;BME280;60384;48.152;11.614;2022-12-07T15:19:23;95423.44;;;5.66;71.24
72395;BME280;60384;48.152;11.614;2022-12-07T15:22:27;95416.63;;;5.60;71.64
72395;BME280;60384;48.152;11.614;2022-12-07T15:25:31;95417.25;;;5.57;71.35
72395;BME280;60384;48.152;11.614;2022-12-07T15:28:34;95420.44;;;5.54;71.29
72395;BME280;60384;48.152;11.614;2022-12-07T15:31:36;95417.31;;;5.52;71.14
72395;BME280;60384;48.152;11.614;2022-12-07T15:34:38;95420.25;;;5.51;71.23
72395;BME280;60384;48.152;11.614;2022-12-07T15:37:42;95426.13;;;5.48;71.16
72395;BME280;60384;48.152;11.614;2022-12-07T15:40:46;95418.75;;;5.45;71.35
72395;BME280;60384;48.152;11.614;2022-12-07T15:43:49;95427.00;;;5.43;71.33
72395;BME280;60384;48.152;11.614;2022-12-07T15:47:08;95430.72;;;5.42;71.60
72395;BME280;60384;48.152;11.614;2022-12-07T15:50:13;95427.88;;;5.38;71.39
72395;BME280;60384;48.152;11.614;2022-12-07T15:53:16;95428.94;;;5.37;71.58
72395;BME280;60384;48.152;11.614;2022-12-07T15:56:18;95423.91;;;5.36;71.70
72395;BME280;60384;48.152;11.614;2022-12-07T15:59:20;95423.44;;;5.34;71.29
72395;BME280;60384;48.152;11.614;2022-12-07T16:02:23;95424.78;;;5.31;71.66
72395;BME280;60384;48.152;11.614;2022-12-07T16:05:25;95421.66;;;5.29;71.59
72395;BME280;60384;48.152;11.614;2022-12-07T16:08:28;95416.94;;;5.26;71.48
72395;BME280;60384;48.152;11.614;2022-12-07T16:11:30;95416.72;;;5.23;71.67
72395;BME280;60384;48.152;11.614;2022-12-07T16:14:32;95422.91;;;5.18;71.32
72395;BME280;60384;48.152;11.614;2022-12-07T16:17:34;95421.59;;;5.16;71.32
72395;BME280;60384;48.152;11.614;2022-12-07T16:20:36;95417.97;;;5.12;71.41
72395;BME280;60384;48.152;11.614;2022-12-07T16:23:40;95422.22;;;5.08;71.34
72395;BME280;60384;48.152;11.614;2022-12-07T16:26:42;95421.75;;;5.06;71.29
72395;BME280;60384;48.152;11.614;2022-12-07T16:29:44;95412.78;;;5.02;71.39
72395;BME280;60384;48.152;11.614;2022-12-07T16:32:46;95408.59;;;5.01;71.48
72395;BME280;60384;48.152;11.614;2022-12-07T16:35:48;95404.38;;;4.99;71.83
72395;BME280;60384;48.152;11.614;2022-12-07T16:38:52;95409.94;;;4.98;71.43
72395;BME280;60384;48.152;11.614;2022-12-07T16:41:54;95406.78;;;4.96;71.40
72395;BME280;60384;48.152;11.614;2022-12-07T16:44:56;95407.09;;;4.94;71.54
72395;BME280;60384;48.152;11.614;2022-12-07T16:47:58;95406.31;;;4.94;71.49
72395;BME280;60384;48.152;11.614;2022-12-07T16:51:01;95405.78;;;4.92;71.77
72395;BME280;60384;48.152;11.614;2022-12-07T16:54:05;95409.03;;;4.89;71.90
72395;BME280;60384;48.152;11.614;2022-12-07T16:57:07;95398.22;;;4.85;71.94
72395;BME280;60384;48.152;11.614;2022-12-07T17:00:10;95400.38;;;4.83;71.73
72395;BME280;60384;48.152;11.614;2022-12-07T17:03:13;95405.44;;;4.80;71.98
72395;BME280;60384;48.152;11.614;2022-12-07T17:06:17;95398.56;;;4.79;72.22
72395;BME280;60384;48.152;11.614;2022-12-07T17:09:21;95399.94;;;4.76;71.79
72395;BME280;60384;48.152;11.614;2022-12-07T17:12:23;95403.66;;;4.75;71.59
72395;BME280;60384;48.152;11.614;2022-12-07T17:15:26;95398.16;;;4.72;71.70
72395;BME280;60384;48.152;11.614;2022-12-07T17:18:29;95396.56;;;4.71;71.71
72395;BME280;60384;48.152;11.614;2022-12-07T17:21:31;95391.56;;;4.69;71.95
72395;BME280;60384;48.152;11.614;2022-12-07T17:24:34;95387.66;;;4.67;71.99
72395;BME280;60384;48.152;11.614;2022-12-07T17:27:36;95389.78;;;4.65;72.15
72395;BME280;60384;48.152;11.614;2022-12-07T17:30:39;95392.97;;;4.62;72.02
72395;BME280;60384;48.152;11.614;2022-12-07T17:33:41;95381.91;;;4.60;71.31
72395;BME280;60384;48.152;11.614;2022-12-07T17:36:43;95387.47;;;4.58;72.29
72395;BME280;60384;48.152;11.614;2022-12-07T17:39:47;95382.78;;;4.55;71.57
72395;BME280;60384;48.152;11.614;2022-12-07T17:42:49;95392.34;;;4.51;72.24
72395;BME280;60384;48.152;11.614;2022-12-07T17:45:51;95381.53;;;4.47;72.31
72395;BME280;60384;48.152;11.614;2022-12-07T17:48:53;95382.41;;;4.43;71.50
72395;BME280;60384;48.152;11.614;2022-12-07T17:51:56;95390.09;;;4.39;71.96
72395;BME280;60384;48.152;11.614;2022-12-07T17:55:17;95395.44;;;4.34;71.50
72395;BME280;60384;48.152;11.614;2022-12-07T17:58:19;95395.53;;;4.29;72.04
72395;BME280;60384;48.152;11.614;2022-12-07T18:01:21;95395.59;;;4.24;71.49
72395;BME280;60384;48.152;11.614;2022-12-07T18:04:23;95387.44;;;4.21;71.64
72395;BME280;60384;48.152;11.614;2022-12-07T18:07:25;95391.44;;;4.18;71.54
72395;BME280;60384;48.152;11.614;2022-12-07T18:10:29;95384.06;;;4.15;72.29
72395;BME280;60384;48.152;11.614;2022-12-07T18:13:32;95389.13;;;4.11;71.90
72395;BME280;60384;48.152;11.614;2022-12-07T18:16:37;95390.19;;;4.10;72.24
72395;BME280;60384;48.152;11.614;2022-12-07T18:19:39;95388.91;;;4.08;71.70
72395;BME280;60384;48.152;11.614;2022-12-07T18:22:41;95391.81;;;4.06;72.13
72395;BME280;60384;48.152;11.614;2022-12-07T18:25:47;95394.75;;;4.05;71.90
72395;BME280;60384;48.152;11.614;2022-12-07T18:28:49;95397.69;;;4.03;71.94
72395;BME280;60384;48.152;11.614;2022-12-07T18:31:51;95389.75;;;4.03;72.38
72395;BME280;60384;48.152;11.614;2022-12-07T18:34:53;95393.94;;;4.04;71.93
72395;BME280;60384;48.152;11.614;2022-12-07T18:37:55;95390.25;;;4.05;71.49
72395;BME280;60384;48.152;11.614;2022-12-07T18:40:59;95391.63;;;4.03;72.26
72395;BME280;60384;48.152;11.614;2022-12-07T18:44:03;95388.19;;;4.02;71.68
72395;BME280;60384;48.152;11.614;2022-12-07T18:47:05;95393.47;;;4.02;71.43
72395;BME280;60384;48.152;11.614;2022-12-07T18:50:07;95384.75;;;4.02;71.64
72395;BME280;60384;48.152;11.614;2022-12-07T18:53:10;95390.53;;;4.04;72.30
72395;BME280;60384;48.152;11.614;2022-12-07T18:56:15;95394.25;;;4.03;71.98
72395;BME280;60384;48.152;11.614;2022-12-07T18:59:17;95394.75;;;4.05;72.37
72395;BME280;60384;48.152;11.614;2022-12-07T19:02:42;95390.53;;;4.04;71.63
72395;BME280;60384;48.152;11.614;2022-12-07T19:05:44;95390.81;;;4.02;71.62
72395;BME280;60384;48.152;11.614;2022-12-07T19:08:46;95376.53;;;4.03;71.69
72395;BME280;60384;48.152;11.614;2022-12-07T19:11:49;95380.75;;;4.04;72.37
72395;BME280;60384;48.152;11.614;2022-12-07T19:14:51;95383.38;;;4.04;72.30
72395;BME280;60384;48.152;11.614;2022-12-07T19:17:54;95379.19;;;4.03;72.07
72395;BME280;60384;48.152;11.614;2022-12-07T19:20:56;95381.03;;;4.03;72.10
72395;BME280;60384;48.152;11.614;2022-12-07T19:24:01;95380.25;;;4.02;71.72
72395;BME280;60384;48.152;11.614;2022-12-07T19:27:05;95382.31;;;4.05;71.92
72395;BME280;60384;48.152;11.614;2022-12-07T19:30:08;95384.16;;;4.05;72.23
72395;BME280;60384;48.152;11.614;2022-12-07T19:33:11;95375.75;;;4.03;71.92
72395;BME280;60384;48.152;11.614;2022-12-07T19:36:12;95367.03;;;4.02;72.45
72395;BME280;60384;48.152;11.614;2022-12-07T19:39:15;95364.66;;;4.01;72.02
72395;BME280;60384;48.152;11.614;2022-12-07T19:42:18;95364.16;;;3.99;72.02
72395;BME280;60384;48.152;11.614;2022-12-07T19:45:20;95365.53;;;3.96;72.09
72395;BME280;60384;48.152;11.614;2022-12-07T19:48:22;95357.88;;;3.95;72.52
72395;BME280;60384;48.152;11.614;2022-12-07T19:51:25;95364.53;;;3.92;72.46
72395;BME280;60384;48.152;11.614;2022-12-07T19:54:27;95358.72;;;3.90;72.00
72395;BME280;60384;48.152;11.614;2022-12-07T19:57:31;95355.88;;;3.87;72.67
72395;BME280;60384;48.152;11.614;2022-12-07T20:00:33;95361.41;;;3.85;72.43
72395;BME280;60384;48.152;11.614;2022-12-07T20:03:35;95367.78;;;3.84;72.60
72395;BME280;60384;48.152;11.614;2022-12-07T20:06:37;95358.00;;;3.85;72.72
72395;BME280;60384;48.152;11.614;2022-12-07T20:09:40;95355.63;;;3.83;72.32
72395;BME280;60384;48.152;11.614;2022-12-07T20:12:44;95352.19;;;3.83;71.82
72395;BME280;60384;48.152;11.614;2022-12-07T20:16:04;95350.59;;;3.82;72.21
72395;BME280;60384;48.152;11.614;2022-12-07T20:19:06;95348.75;;;3.82;72.00
72395;BME280;60384;48.152;11.614;2022-12-07T20:22:09;95339.28;;;3.81;71.90
72395;BME280;60384;48.152;11.614;2022-12-07T20:25:11;95343.00;;;3.80;72.27
72395;BME280;60384;48.152;11.614;2022-12-07T20:28:14;95335.06;;;3.80;72.35
72395;BME280;60384;48.152;11.614;2022-12-07T20:31:17;95337.72;;;3.80;72.08
72395;BME280;60384;48.152;11.614;2022-12-07T20:34:20;95333.22;;;3.81;72.44
72395;BME280;60384;48.152;11.614;2022-12-07T20:37:22;95341.13;;;3.81;72.76
72395;BME280;60384;48.152;11.614;2022-12-07T20:40:24;95333.50;;;3.79;72.65
72395;BME280;60384;48.152;11.614;2022-12-07T20:43:27;95330.84;;;3.79;72.08
72395;BME280;60384;48.152;11.614;2022-12-07T20:46:30;95329.78;;;3.80;72.82
72395;BME280;60384;48.152;11.614;2022-12-07T20:49:32;95328.19;;;3.79;71.97
72395;BME280;60384;48.152;11.614;2022-12-07T20:52:34;95332.41;;;3.80;71.96
72395;BME280;60384;48.152;11.614;2022-12-07T20:55:36;95329.25;;;3.78;72.64
72395;BME280;60384;48.152;11.614;2022-12-07T20:58:40;95332.97;;;3.77;72.68
72395;BME280;60384;48.152;11.614;2022-12-07T21:01:42;95333.53;;;3.74;72.84
72395;BME280;60384;48.152;11.614;2022-12-07T21:04:47;95330.91;;;3.74;72.06
72395;BME280;60384;48.152;11.614;2022-12-07T21:07:49;95326.69;;;3.73;72.44
72395;BME280;60384;48.152;11.614;2022-12-07T21:10:51;95326.97;;;3.71;72.86
72395;BME280;60384;48.152;11.614;2022-12-07T21:13:55;95326.97;;;3.71;72.87
72395;BME280;60384;48.152;11.614;2022-12-07T21:16:57;95322.75;;;3.70;72.41
72395;BME280;60384;48.152;11.614;2022-12-07T21:19:59;95320.09;;;3.70;72.23
72395;BME280;60384;48.152;11.614;2022-12-07T21:23:00;95331.75;;;3.69;72.53
72395;BME280;60384;48.152;11.614;2022-12-07T21:26:08;95327.53;;;3.68;72.71
72395;BME280;60384;48.152;11.614;2022-12-07T21:29:11;95313.53;;;3.68;72.42
72395;BME280;60384;48.152;11.614;2022-12-07T21:32:14;95318.81;;;3.68;72.60
72395;BME280;60384;48.152;11.614;2022-12-07T21:35:16;95323.84;;;3.69;72.80
72395;BME280;60384;48.152;11.614;2022-12-07T21:38:18;95313.53;;;3.68;72.82
72395;BME280;60384;48.152;11.614;2022-12-07T21:41:22;95310.91;;;3.68;72.89
72395;BME280;60384;48.152;11.614;2022-12-07T21:44:26;95305.63;;;3.68;72.12
72395;BME280;60384;48.152;11.614;2022-12-07T21:47:28;95307.47;;;3.67;72.48
72395;BME280;60384;48.152;11.614;2022-12-07T21:50:32;95299.81;;;3.66;72.34
72395;BME280;60384;48.152;11.614;2022-12-07T21:53:34;95302.97;;;3.68;72.89
72395;BME280;60384;48.152;11.614;2022-12-07T21:56:39;95304.56;;;3.69;72.41
72395;BME280;60384;48.152;11.614;2022-12-07T21:59:44;95305.63;;;3.68;72.00
72395;BME280;60384;48.152;11.614;2022-12-07T22:02:46;95308.25;;;3.68;72.70
72395;BME280;60384;48.152;11.614;2022-12-07T22:05:48;95300.59;;;3.66;72.16
72395;BME280;60384;48.152;11.614;2022-12-07T22:08:52;95299.53;;;3.67;72.76
72395;BME280;60384;48.152;11.614;2022-12-07T22:11:54;95306.41;;;3.68;72.82
72395;BME280;60384;48.152;11.614;2022-12-07T22:14:57;95294.00;;;3.69;72.67
72395;BME280;60384;48.152;11.614;2022-12-07T22:18:09;95298.97;;;3.70;72.41
72395;BME280;60384;48.152;11.614;2022-12-07T22:21:12;95296.31;;;3.70;72.46
72395;BME280;60384;48.152;11.614;2022-12-07T22:24:14;95283.13;;;3.70;72.78
72395;BME280;60384;48.152;11.614;2022-12-07T22:27:16;95278.63;;;3.71;72.18
72395;BME280;60384;48.152;11.614;2022-12-07T22:30:19;95288.41;;;3.70;72.14
72395;BME280;60384;48.152;11.614;2022-12-07T22:33:21;95291.34;;;3.69;72.33
72395;BME280;60384;48.152;11.614;2022-12-07T22:36:24;95281.84;;;3.68;72.86
72395;BME280;60384;48.152;11.614;2022-12-07T22:39:27;95277.06;;;3.70;72.54
72395;BME280;60384;48.152;11.614;2022-12-07T22:42:29;95276.78;;;3.71;72.18
72395;BME280;60384;48.152;11.614;2022-12-07T22:45:33;95278.63;;;3.71;72.77
72395;BME280;60384;48.152;11.614;2022-12-07T22:48:35;95276.00;;;3.71;72.58
72395;BME280;60384;48.152;11.614;2022-12-07T22:51:39;95272.28;;;3.72;72.18
72395;BME280;60384;48.152;11.614;2022-12-07T22:54:41;95267.78;;;3.72;72.59
72395;BME280;60384;48.152;11.614;2022-12-07T22:57:43;95274.13;;;3.71;72.72
72395;BME280;60384;48.152;11.614;2022-12-07T23:00:47;95267.00;;;3.72;72.10
72395;BME280;60384;48.152;11.614;2022-12-07T23:03:49;95260.13;;;3.71;72.54
72395;BME280;60384;48.152;11.614;2022-12-07T23:06:51;95268.84;;;3.71;72.91
72395;BME280;60384;48.152;11.614;2022-12-07T23:09:53;95262.50;;;3.72;72.44
72395;BME280;60384;48.152;11.614;2022-12-07T23:12:55;95267.00;;;3.72;72.63
72395;BME280;60384;48.152;11.614;2022-12-07T23:16:16;95251.44;;;3.70;72.85
72395;BME280;60384;48.152;11.614;2022-12-07T23:19:18;95252.22;;;3.71;72.84
72395;BME280;60384;48.152;11.614;2022-12-07T23:22:20;95250.66;;;3.70;72.62
72395;BME280;60384;48.152;11.614;2022-12-07T23:25:22;95246.94;;;3.71;72.26
72395;BME280;60384;48.152;11.614;2022-12-07T23:28:24;95248.50;;;3.72;72.58
72395;BME280;60384;48.152;11.614;2022-12-07T23:31:27;95241.66;;;3.71;73.00
72395;BME280;60384;48.152;11.614;2022-12-07T23:34:29;95241.66;;;3.71;72.91
72395;BME280;60384;48.152;11.614;2022-12-07T23:37:31;95234.50;;;3.71;72.97
72395;BME280;60384;48.152;11.614;2022-12-07T23:40:33;95228.16;;;3.72;72.70
72395;BME280;60384;48.152;11.614;2022-12-07T23:43:35;95228.97;;;3.73;72.60
72395;BME280;60384;48.152;11.614;2022-12-07T23:46:39;95226.31;;;3.73;72.36
72395;BME280;60384;48.152;11.614;2022-12-07T23:49:41;95224.75;;;3.72;72.98
72395;BME280;60384;48.152;11.614;2022-12-07T23:52:43;95225.25;;;3.74;72.88
72395;BME280;60384;48.152;11.614;2022-12-07T23:55:45;95213.13;;;3.73;72.19
72395;BME280;60384;48.152;11.614;2022-12-07T23:58:48;95207.84;;;3.73;72.31
